createdAt,value
2019-05-13T00:03:15.759Z,9.10
2019-05-13T00:06:50.233Z,9.00
2019-05-13T00:10:04.097Z,8.90
2019-05-13T00:13:26.035Z,8.90
2019-05-13T00:16:48.131Z,8.90
2019-05-13T00:20:10.892Z,8.90
2019-05-13T00:23:33.959Z,8.90
2019-05-13T00:26:56.837Z,8.90
2019-05-13T00:30:19.439Z,8.70
2019-05-13T00:33:44.268Z,8.60
2019-05-13T00:37:11.139Z,8.50
2019-05-13T00:40:29.758Z,8.60
2019-05-13T00:43:53.225Z,8.50
2019-05-13T00:47:16.071Z,8.40
2019-05-13T00:50:38.103Z,8.30
2019-05-13T00:54:00.467Z,8.30
2019-05-13T00:57:23.823Z,8.30
2019-05-13T01:00:46.554Z,8.20
2019-05-13T01:04:08.951Z,8.20
2019-05-13T01:07:34.019Z,8.20
2019-05-13T01:10:55.606Z,8.10
2019-05-13T01:14:18.181Z,8.10
2019-05-13T01:17:40.924Z,8.00
2019-05-13T01:21:04.381Z,7.90
2019-05-13T01:24:27.334Z,7.80
2019-05-13T01:27:49.730Z,7.90
2019-05-13T01:31:13.240Z,7.80
2019-05-13T01:34:35.472Z,7.80
2019-05-13T01:37:57.602Z,7.70
2019-05-13T01:41:20.289Z,7.70
2019-05-13T01:44:43.779Z,7.60
2019-05-13T01:48:07.773Z,7.50
2019-05-13T01:51:30.208Z,7.50
2019-05-13T01:54:54.373Z,7.40
2019-05-13T01:58:16.654Z,7.40
2019-05-13T02:01:39.379Z,7.30
2019-05-13T02:05:03.953Z,7.30
2019-05-13T02:08:26.212Z,7.20
2019-05-13T02:11:48.597Z,7.10
2019-05-13T02:15:11.158Z,7.10
2019-05-13T02:18:34.315Z,7.10
2019-05-13T02:21:56.884Z,7.00
2019-05-13T02:25:19.291Z,7.10
2019-05-13T02:28:43.640Z,7.00
2019-05-13T02:32:05.681Z,6.90
2019-05-13T02:35:28.334Z,6.90
2019-05-13T02:38:53.201Z,6.90
2019-05-13T02:42:15.032Z,6.80
2019-05-13T02:45:38.139Z,6.80
2019-05-13T02:49:03.199Z,6.80
2019-05-13T02:52:24.412Z,6.70
2019-05-13T02:55:46.996Z,6.70
2019-05-13T02:59:13.013Z,6.70
2019-05-13T03:02:33.572Z,6.60
2019-05-13T03:05:56.116Z,6.60
2019-05-13T03:09:18.617Z,6.60
2019-05-13T03:12:42.395Z,6.50
2019-05-13T03:16:27.809Z,6.60
2019-05-13T03:19:52.996Z,6.50
2019-05-13T03:23:14.029Z,6.60
2019-05-13T03:26:36.182Z,6.60
2019-05-13T03:29:58.803Z,6.60
2019-05-13T03:33:27.337Z,6.50
2019-05-13T03:36:46.465Z,6.60
2019-05-13T03:40:08.844Z,6.70
2019-05-13T03:43:33.138Z,6.90
2019-05-13T03:46:57.804Z,7.40
2019-05-13T03:50:22.658Z,7.90
2019-05-13T03:53:44.490Z,8.30
2019-05-13T03:57:07.034Z,8.70
2019-05-13T04:00:32.073Z,8.80
2019-05-13T04:03:53.261Z,8.90
2019-05-13T04:07:15.684Z,9.20
2019-05-13T04:10:38.435Z,9.00
2019-05-13T04:14:03.262Z,8.80
2019-05-13T04:17:24.824Z,8.40
2019-05-13T04:20:52.986Z,8.20
2019-05-13T04:24:15.105Z,8.00
2019-05-13T04:27:37.610Z,8.20
2019-05-13T04:31:02.433Z,9.00
2019-05-13T04:34:24.294Z,9.60
2019-05-13T04:37:47.074Z,10.40
2019-05-13T04:41:12.012Z,10.90
2019-05-13T04:44:33.569Z,10.90
2019-05-13T04:47:56.079Z,11.50
2019-05-13T04:51:18.399Z,11.50
2019-05-13T04:54:43.620Z,11.20
2019-05-13T04:58:04.778Z,11.40
2019-05-13T05:01:40.057Z,11.60
2019-05-13T05:05:13.012Z,12.10
2019-05-13T05:08:57.021Z,12.10
2019-05-13T05:12:47.717Z,12.10
2019-05-13T05:16:44.744Z,12.70
2019-05-13T05:20:14.417Z,12.50
2019-05-13T05:24:22.212Z,13.10
2019-05-13T05:28:06.048Z,13.40
2019-05-13T05:31:38.203Z,13.30
2019-05-13T05:35:25.875Z,12.70
2019-05-13T05:39:12.280Z,12.90
2019-05-13T05:42:37.407Z,12.70
2019-05-13T05:46:02.425Z,12.50
2019-05-13T05:49:26.175Z,12.90
2019-05-13T05:52:51.338Z,13.60
2019-05-13T05:56:16.526Z,13.70
2019-05-13T05:59:39.431Z,14.10
2019-05-13T06:03:03.578Z,14.20
2019-05-13T06:06:27.056Z,14.20
2019-05-13T06:09:51.599Z,14.20
2019-05-13T06:13:14.808Z,13.40
2019-05-13T06:16:37.567Z,12.90
2019-05-13T06:20:03.215Z,12.70
2019-05-13T06:23:25.865Z,12.90
2019-05-13T06:26:48.258Z,12.40
2019-05-13T06:30:12.639Z,13.00
2019-05-13T06:33:34.918Z,14.10
2019-05-13T06:36:57.471Z,13.70
2019-05-13T06:40:21.440Z,13.20
2019-05-13T06:43:43.883Z,13.10
2019-05-13T06:47:06.541Z,13.30
2019-05-13T06:50:28.929Z,14.10
2019-05-13T06:53:51.823Z,14.60
2019-05-13T06:57:16.314Z,14.80
2019-05-13T07:00:38.931Z,14.80
2019-05-13T07:04:02.362Z,14.20
2019-05-13T07:07:24.747Z,14.50
2019-05-13T07:10:47.186Z,14.90
2019-05-13T07:14:11.990Z,14.00
2019-05-13T07:17:33.507Z,14.30
2019-05-13T07:20:56.159Z,14.90
2019-05-13T07:24:18.596Z,15.70
2019-05-13T07:27:42.381Z,16.10
2019-05-13T07:31:05.433Z,16.20
2019-05-13T07:34:27.665Z,16.70
2019-05-13T07:37:51.743Z,16.60
2019-05-13T07:41:14.539Z,16.70
2019-05-13T07:44:37.203Z,16.70
2019-05-13T07:48:01.438Z,16.80
2019-05-13T07:51:24.219Z,16.80
2019-05-13T07:54:46.730Z,17.20
2019-05-13T07:58:11.470Z,16.00
2019-05-13T08:01:33.461Z,15.00
2019-05-13T08:04:56.174Z,15.40
2019-05-13T08:08:18.270Z,15.90
2019-05-13T08:11:59.978Z,16.50
2019-05-13T08:15:06.087Z,16.40
2019-05-13T08:18:28.842Z,15.80
2019-05-13T08:21:51.450Z,15.40
2019-05-13T08:25:14.515Z,14.90
2019-05-13T08:28:52.698Z,16.30
2019-05-13T08:32:02.873Z,17.00
2019-05-13T08:35:24.761Z,17.50
2019-05-13T08:38:47.907Z,18.10
2019-05-13T08:42:16.110Z,16.40
2019-05-13T08:45:34.190Z,15.40
2019-05-13T08:48:56.635Z,15.20
2019-05-13T08:52:21.754Z,15.40
2019-05-13T08:55:43.459Z,14.80
2019-05-13T08:59:05.664Z,14.40
2019-05-13T09:04:42.190Z,15.20
2019-05-13T09:08:04.804Z,15.50
2019-05-13T09:11:27.494Z,15.50
2019-05-13T09:14:52.223Z,15.50
2019-05-13T09:18:14.252Z,15.20
2019-05-13T09:21:36.699Z,14.80
2019-05-13T09:25:01.887Z,15.30
2019-05-13T09:28:23.119Z,15.50
2019-05-13T09:31:45.334Z,15.20
2019-05-13T09:35:07.450Z,15.50
2019-05-13T09:38:32.383Z,15.80
2019-05-13T09:41:53.723Z,16.10
2019-05-13T09:45:16.459Z,16.30
2019-05-13T09:48:39.239Z,15.60
2019-05-13T09:52:01.793Z,15.30
2019-05-13T09:55:29.025Z,15.70
2019-05-13T09:58:51.180Z,15.70
2019-05-13T10:02:12.722Z,15.30
2019-05-13T10:05:35.272Z,15.50
2019-05-13T10:08:57.840Z,15.50
2019-05-13T10:12:23.827Z,15.50
2019-05-13T10:15:48.566Z,15.00
2019-05-13T10:19:08.418Z,15.00
2019-05-13T10:22:31.944Z,14.90
2019-05-13T10:25:58.001Z,14.90
2019-05-13T10:29:22.375Z,15.10
2019-05-13T10:32:44.956Z,15.30
2019-05-13T10:36:08.335Z,14.70
2019-05-13T10:39:30.700Z,14.30
2019-05-13T10:42:52.707Z,15.10
2019-05-13T10:46:15.097Z,15.10
2019-05-13T10:49:37.511Z,15.70
2019-05-13T10:53:02.553Z,15.80
2019-05-13T10:56:23.876Z,16.30
2019-05-13T10:59:45.944Z,16.20
2019-05-13T11:03:08.690Z,15.60
2019-05-13T11:06:34.516Z,16.20
2019-05-13T11:09:56.866Z,15.70
2019-05-13T11:13:22.600Z,15.50
2019-05-13T11:16:43.527Z,14.70
2019-05-13T11:20:06.181Z,14.90
2019-05-13T11:23:28.556Z,15.00
2019-05-13T11:26:53.094Z,15.00
2019-05-13T11:30:14.748Z,14.60
2019-05-13T11:33:37.374Z,14.80
2019-05-13T11:37:03.303Z,14.60
2019-05-13T11:40:23.568Z,14.90
2019-05-13T11:43:45.970Z,14.90
2019-05-13T11:47:08.392Z,15.00
2019-05-13T11:50:30.665Z,15.40
2019-05-13T11:53:53.085Z,15.20
2019-05-13T11:57:15.796Z,15.00
2019-05-13T12:00:53.631Z,14.80
2019-05-13T12:04:16.255Z,14.50
2019-05-13T12:07:40.221Z,14.60
2019-05-13T12:11:05.653Z,14.80
2019-05-13T12:14:56.930Z,15.20
2019-05-13T12:17:52.922Z,15.30
2019-05-13T12:21:15.713Z,15.70
2019-05-13T12:24:37.857Z,15.00
2019-05-13T12:28:03.331Z,15.00
2019-05-13T12:31:24.614Z,15.70
2019-05-13T12:34:47.423Z,15.80
2019-05-13T12:38:13.235Z,15.40
2019-05-13T12:41:34.621Z,15.20
2019-05-13T12:48:08.174Z,14.90
2019-05-13T12:51:32.574Z,14.80
2019-05-13T12:54:55.027Z,14.90
2019-05-13T12:58:17.392Z,14.80
2019-05-13T13:01:39.883Z,14.70
2019-05-13T13:05:18.438Z,15.10
2019-05-13T13:08:40.023Z,15.20
2019-05-13T13:11:53.968Z,15.30
2019-05-13T13:15:35.909Z,15.40
2019-05-13T13:18:39.127Z,15.20
2019-05-13T13:22:06.851Z,15.20
2019-05-13T13:25:26.582Z,14.90
2019-05-13T13:28:48.940Z,15.10
2019-05-13T13:32:13.407Z,15.20
2019-05-13T13:35:35.116Z,15.10
2019-05-13T13:38:57.491Z,15.00
2019-05-13T13:42:19.803Z,15.10
2019-05-13T13:46:06.549Z,15.00
2019-05-13T13:49:06.290Z,15.30
2019-05-13T17:51:51.833Z,12.70
2019-05-13T17:55:14.636Z,12.70
2019-05-13T17:58:37.308Z,12.70
2019-05-13T18:02:02.323Z,12.70
2019-05-13T18:05:24.284Z,12.70
2019-05-13T18:08:46.859Z,12.70
2019-05-13T18:12:11.571Z,12.80
2019-05-13T18:15:34.293Z,12.70
2019-05-13T18:18:57.048Z,12.60
2019-05-13T18:22:19.759Z,12.60
2019-05-13T18:25:42.329Z,12.60
2019-05-13T18:29:04.831Z,12.50
2019-05-13T18:32:27.608Z,12.50
2019-05-13T18:35:52.422Z,12.40
2019-05-13T18:39:14.143Z,12.40
2019-05-13T18:42:36.553Z,12.30
2019-05-13T18:46:01.791Z,12.30
2019-05-13T18:49:22.994Z,12.20
2019-05-13T18:52:45.208Z,12.10
2019-05-13T18:56:07.680Z,12.00
2019-05-13T18:59:32.004Z,12.00
2019-05-13T19:02:54.076Z,11.80
2019-05-13T19:06:16.487Z,11.60
2019-05-13T19:09:38.499Z,11.40
2019-05-13T19:13:01.706Z,11.30
2019-05-13T19:16:24.391Z,11.10
2019-05-13T19:19:46.946Z,11.10
2019-05-13T19:23:11.645Z,11.00
2019-05-13T19:26:33.722Z,10.90
2019-05-13T19:29:56.507Z,10.80
2019-05-13T19:33:19.437Z,10.70
2019-05-13T19:36:42.408Z,10.60
2019-05-13T19:40:05.444Z,10.60
2019-05-13T19:43:27.511Z,10.60
2019-05-13T19:46:52.217Z,10.50
2019-05-13T19:50:14.319Z,10.50
2019-05-13T19:53:36.763Z,10.50
2019-05-13T19:57:01.224Z,10.50
2019-05-13T20:00:23.476Z,10.40
2019-05-13T20:03:46.171Z,10.50
2019-05-13T20:07:08.671Z,10.40
2019-05-13T20:10:31.429Z,10.40
2019-05-13T20:13:54.275Z,10.50
2019-05-13T20:17:16.871Z,10.50
2019-05-13T20:20:41.214Z,10.40
2019-05-13T20:24:03.614Z,10.40
2019-05-13T20:27:26.138Z,10.40
2019-05-13T20:30:48.460Z,10.30
2019-05-13T20:34:11.902Z,10.20
2019-05-13T20:37:34.648Z,10.10
2019-05-13T20:40:57.179Z,10.00
2019-05-13T20:44:21.983Z,9.90
2019-05-13T20:47:43.856Z,9.80
2019-05-13T20:51:06.359Z,9.60
2019-05-13T20:54:31.199Z,9.50
2019-05-13T20:57:53.258Z,9.50
2019-05-13T21:01:15.901Z,9.30
2019-05-13T21:04:38.422Z,9.20
2019-05-13T21:08:01.721Z,9.10
2019-05-13T21:11:24.149Z,9.10
2019-05-13T21:14:46.538Z,8.90
2019-05-13T21:18:11.362Z,8.80
2019-05-13T21:21:33.134Z,8.70
2019-05-13T21:24:55.689Z,8.70
2019-05-13T21:28:18.810Z,8.60
2019-05-13T21:31:41.586Z,8.50
2019-05-13T21:35:04.261Z,8.40
2019-05-13T21:38:26.531Z,8.40
2019-05-13T21:41:51.771Z,8.40
2019-05-13T21:45:13.362Z,8.40
2019-05-13T21:48:35.566Z,8.40
2019-05-13T21:51:58.423Z,8.30
2019-05-13T21:55:21.682Z,8.30
2019-05-13T21:58:44.466Z,8.20
2019-05-13T22:02:07.116Z,8.20
2019-05-13T22:05:31.362Z,8.20
2019-05-13T22:08:53.716Z,8.10
2019-05-13T22:12:16.724Z,8.20
2019-05-13T22:15:41.451Z,8.40
2019-05-13T22:19:03.201Z,8.50
2019-05-13T22:22:25.888Z,8.50
2019-05-13T22:25:48.199Z,8.60
2019-05-13T22:29:10.626Z,8.70
2019-05-13T22:32:33.354Z,8.70
2019-05-13T22:35:56.115Z,8.80
2019-05-13T22:39:18.478Z,8.80
2019-05-13T22:42:41.562Z,8.70
2019-05-13T22:46:04.174Z,8.70
2019-05-13T22:49:26.944Z,8.80
2019-05-13T22:52:49.276Z,8.90
2019-05-13T22:56:11.863Z,9.10
2019-05-13T22:59:34.010Z,9.20
2019-05-13T23:02:56.597Z,9.20
2019-05-13T23:06:21.453Z,9.20
2019-05-13T23:09:43.026Z,9.10
2019-05-13T23:13:05.418Z,9.10
2019-05-13T23:16:28.176Z,9.10
2019-05-13T23:19:52.254Z,9.00
2019-05-13T23:23:14.784Z,8.90
2019-05-13T23:26:37.292Z,8.90
2019-05-13T23:30:01.235Z,8.70
2019-05-13T23:33:24.245Z,8.70
2019-05-13T23:36:46.728Z,8.70
2019-05-13T23:40:11.697Z,8.70
2019-05-13T23:43:33.587Z,8.70
2019-05-13T23:46:55.987Z,8.70
2019-05-13T23:50:18.807Z,8.60
2019-05-13T23:53:41.663Z,8.50
2019-05-13T23:57:04.226Z,8.50
